18 Apr 2019 14:37 UTC 2019108+14:37 UTC

Overview Datums Bench Marks Data Query Site Visit Daily QC Messages Attributes

171: National Park Service - Bird Island

27° 29' 4" N   97° 19' 5" W
NPSBI
United States National Park Service United States National Park Service

Station Information

National Park Service - Bird Island
National Park Service - Bird Island
more pictures
 
Station Name:National Park Service - Bird Island
DNR ID:171
Location:27° 29' 4" N, 97° 19' 5" W

Water Level Forecasts

Latest Observations

Series Metric English Marine Observed at
Water Temperature 22.8 °C 73.0 °F 73.0 °F Apr 18 09:12 CDT
00h19m ago
Salinity 27.800 psu 27.800 psu 27.800 psu Apr 18 09:12 CDT
00h19m ago
pH 7.84 pH 7.84 pH 7.84 pH Apr 18 09:12 CDT
00h19m ago
Turbidity -13 ntu -13 ntu -13 ntu Apr 18 09:12 CDT
00h19m ago
Dissolved Oxygen 0.00 mg/L 0.000000 lb/ft3 0.000000 lb/ft3 Apr 18 09:12 CDT
00h19m ago

Maps

National Park Service - Bird Island
All Stations in Area
Entire Network
 

Recent Observations

Date/Time Water
Temp (°F)
Sal (psu) pH (pH) Turb (ntu) DO (lb/ft3)
Apr 18 09:00 CDT 73.0 27.800 7.85 -12 0.000000
Apr 18 08:00 CDT 73.2 27.800 7.89 -12 0.000000
Apr 18 07:00 CDT 73.9 28.100 7.88 -13 0.000000
Apr 18 06:00 CDT 74.8 28.800 7.78 -13 0.000000
Apr 18 05:00 CDT 74.8 28.800 7.78 -13 0.000000
Apr 18 04:00 CDT 74.8 28.900 7.81 -13 0.000000
Apr 18 03:00 CDT 75.0 28.900 7.85 -12 0.000000
Apr 18 02:00 CDT 75.2 28.900 7.87 -12 0.000000
Apr 18 01:00 CDT 75.2 28.700 7.91 -13 0.000000
Apr 18 00:00 CDT 75.4 28.800 7.90 -13 0.000000
Apr 17 23:00 CDT 75.4 28.800 7.84 -13 0.000000
Apr 17 22:00 CDT 75.7 28.800 7.83 -13 0.000000
Apr 17 21:00 CDT 75.9 28.700 7.86 -12 0.000000
Apr 17 20:00 CDT 75.9 28.800 7.87 -13 0.000000
Apr 17 19:00 CDT 76.1 28.800 7.87 -13 0.000000
Apr 17 18:00 CDT 75.7 28.800 7.87 -12 0.000000
Apr 17 17:00 CDT 76.3 28.800 7.86 -12 0.000000
Apr 17 16:00 CDT 76.1 28.800 7.88 -13 0.000000
Apr 17 15:00 CDT 75.7 28.800 7.90 -13 0.000000
Apr 17 14:00 CDT 75.6 28.700 7.94 -13 0.000000
Apr 17 13:00 CDT 75.4 28.600 7.94 -12 0.000000
Apr 17 12:00 CDT 75.0 28.700 7.92 -13 0.000000
Apr 17 11:00 CDT 74.7 28.700 7.90 -13 0.000000
Apr 17 10:00 CDT 74.3 28.700 7.89 -13 0.000000
Apr 17 09:00 CDT 74.3 28.700 7.84 -13 0.000000

Historical Data Availability